sensor_id;sensor_type;location;lat;lon;timestamp;pressure;altitude;pressure_sealevel;temperature;humidity
78411;BME280;67706;51.074;-1.796;2023-04-29T00:00:01;101323.50;;;10.00;84.55
78411;BME280;67706;51.074;-1.796;2023-04-29T00:02:29;101327.22;;;10.07;84.37
78411;BME280;67706;51.074;-1.796;2023-04-29T00:04:57;101326.84;;;10.10;84.06
78411;BME280;67706;51.074;-1.796;2023-04-29T00:07:24;101329.91;;;9.92;84.62
78411;BME280;67706;51.074;-1.796;2023-04-29T00:09:50;101333.13;;;9.96;84.40
78411;BME280;67706;51.074;-1.796;2023-04-29T00:12:17;101332.56;;;10.00;84.63
78411;BME280;67706;51.074;-1.796;2023-04-29T00:14:44;101343.63;;;10.15;83.82
78411;BME280;67706;51.074;-1.796;2023-04-29T00:17:11;101346.19;;;10.16;83.97
78411;BME280;67706;51.074;-1.796;2023-04-29T00:19:39;101343.00;;;10.05;84.04
78411;BME280;67706;51.074;-1.796;2023-04-29T00:22:06;101344.69;;;10.06;84.06
78411;BME280;67706;51.074;-1.796;2023-04-29T00:24:33;101340.22;;;10.13;83.53
78411;BME280;67706;51.074;-1.796;2023-04-29T00:27:00;101348.34;;;9.98;83.91
78411;BME280;67706;51.074;-1.796;2023-04-29T00:29:27;101340.66;;;9.94;84.17
78411;BME280;67706;51.074;-1.796;2023-04-29T00:31:53;101345.47;;;9.92;84.44
78411;BME280;67706;51.074;-1.796;2023-04-29T00:34:20;101352.53;;;9.86;84.41
78411;BME280;67706;51.074;-1.796;2023-04-29T00:36:48;101347.50;;;9.98;84.20
78411;BME280;67706;51.074;-1.796;2023-04-29T00:39:15;101341.41;;;9.88;84.31
78411;BME280;67706;51.074;-1.796;2023-04-29T00:41:42;101346.19;;;9.86;84.42
78411;BME280;67706;51.074;-1.796;2023-04-29T00:44:08;101343.13;;;9.81;84.75
78411;BME280;67706;51.074;-1.796;2023-04-29T00:46:35;101334.31;;;9.71;84.87
78411;BME280;67706;51.074;-1.796;2023-04-29T00:49:02;101349.97;;;9.85;84.20
78411;BME280;67706;51.074;-1.796;2023-04-29T00:51:30;101345.41;;;9.77;83.90
78411;BME280;67706;51.074;-1.796;2023-04-29T00:53:58;101344.78;;;9.67;83.83
78411;BME280;67706;51.074;-1.796;2023-04-29T00:56:26;101339.88;;;9.54;83.80
78411;BME280;67706;51.074;-1.796;2023-04-29T00:58:56;101347.81;;;9.41;84.36
78411;BME280;67706;51.074;-1.796;2023-04-29T01:01:24;101338.28;;;9.29;84.97
78411;BME280;67706;51.074;-1.796;2023-04-29T01:03:50;101341.50;;;9.33;85.08
78411;BME280;67706;51.074;-1.796;2023-04-29T01:06:25;101349.06;;;9.31;85.14
78411;BME280;67706;51.074;-1.796;2023-04-29T01:09:05;101343.44;;;9.24;85.62
78411;BME280;67706;51.074;-1.796;2023-04-29T01:11:42;101337.63;;;9.27;85.03
78411;BME280;67706;51.074;-1.796;2023-04-29T01:14:12;101343.56;;;9.31;85.04
78411;BME280;67706;51.074;-1.796;2023-04-29T01:16:43;101350.41;;;9.35;84.74
78411;BME280;67706;51.074;-1.796;2023-04-29T01:19:15;101350.53;;;9.41;84.29
78411;BME280;67706;51.074;-1.796;2023-04-29T01:21:48;101353.06;;;9.12;85.53
78411;BME280;67706;51.074;-1.796;2023-04-29T01:24:16;101354.59;;;9.15;85.58
78411;BME280;67706;51.074;-1.796;2023-04-29T01:26:46;101356.50;;;9.06;85.98
78411;BME280;67706;51.074;-1.796;2023-04-29T01:29:26;101349.78;;;9.17;85.30
78411;BME280;67706;51.074;-1.796;2023-04-29T01:32:03;101356.47;;;9.14;85.51
78411;BME280;67706;51.074;-1.796;2023-04-29T01:34:38;101356.94;;;9.26;85.29
78411;BME280;67706;51.074;-1.796;2023-04-29T01:37:13;101349.44;;;9.28;84.88
78411;BME280;67706;51.074;-1.796;2023-04-29T01:39:52;101356.47;;;9.14;85.31
78411;BME280;67706;51.074;-1.796;2023-04-29T01:42:23;101352.22;;;9.04;85.87
78411;BME280;67706;51.074;-1.796;2023-04-29T01:44:54;101349.69;;;9.02;85.46
78411;BME280;67706;51.074;-1.796;2023-04-29T01:47:21;101363.19;;;8.96;85.66
78411;BME280;67706;51.074;-1.796;2023-04-29T01:49:48;101352.56;;;9.01;85.71
78411;BME280;67706;51.074;-1.796;2023-04-29T01:52:15;101353.94;;;9.05;85.77
78411;BME280;67706;51.074;-1.796;2023-04-29T01:54:42;101359.41;;;8.97;85.75
78411;BME280;67706;51.074;-1.796;2023-04-29T01:57:10;101363.19;;;8.96;85.47
78411;BME280;67706;51.074;-1.796;2023-04-29T01:59:37;101367.50;;;8.74;86.11
78411;BME280;67706;51.074;-1.796;2023-04-29T02:02:03;101367.03;;;8.62;85.98
78411;BME280;67706;51.074;-1.796;2023-04-29T02:04:30;101373.16;;;8.64;85.60
78411;BME280;67706;51.074;-1.796;2023-04-29T02:06:58;101372.31;;;8.48;85.73
78411;BME280;67706;51.074;-1.796;2023-04-29T02:09:25;101369.06;;;8.44;85.62
78411;BME280;67706;51.074;-1.796;2023-04-29T02:11:52;101367.19;;;8.45;85.92
78411;BME280;67706;51.074;-1.796;2023-04-29T02:14:20;101367.88;;;8.39;86.28
78411;BME280;67706;51.074;-1.796;2023-04-29T02:16:47;101370.09;;;8.43;86.04
78411;BME280;67706;51.074;-1.796;2023-04-29T02:19:13;101372.16;;;8.25;86.57
78411;BME280;67706;51.074;-1.796;2023-04-29T02:21:41;101374.53;;;8.36;86.31
78411;BME280;67706;51.074;-1.796;2023-04-29T02:24:07;101372.63;;;8.21;86.54
78411;BME280;67706;51.074;-1.796;2023-04-29T02:26:34;101368.69;;;8.23;86.79
78411;BME280;67706;51.074;-1.796;2023-04-29T02:29:02;101367.00;;;8.22;86.90
78411;BME280;67706;51.074;-1.796;2023-04-29T02:31:30;101369.53;;;8.24;86.19
78411;BME280;67706;51.074;-1.796;2023-04-29T02:33:57;101359.28;;;8.18;86.43
78411;BME280;67706;51.074;-1.796;2023-04-29T02:36:24;101367.84;;;8.15;86.46
78411;BME280;67706;51.074;-1.796;2023-04-29T02:38:51;101366.44;;;8.11;86.77
78411;BME280;67706;51.074;-1.796;2023-04-29T02:41:20;101365.63;;;8.02;86.75
78411;BME280;67706;51.074;-1.796;2023-04-29T02:43:47;101366.13;;;8.14;86.55
78411;BME280;67706;51.074;-1.796;2023-04-29T02:46:14;101368.69;;;8.15;86.04
78411;BME280;67706;51.074;-1.796;2023-04-29T02:48:42;101374.63;;;7.94;86.75
78411;BME280;67706;51.074;-1.796;2023-04-29T02:51:09;101376.66;;;7.84;87.33
78411;BME280;67706;51.074;-1.796;2023-04-29T02:53:35;101382.81;;;7.86;87.47
78411;BME280;67706;51.074;-1.796;2023-04-29T02:56:02;101376.69;;;8.00;86.57
78411;BME280;67706;51.074;-1.796;2023-04-29T02:58:29;101378.72;;;7.90;86.71
78411;BME280;67706;51.074;-1.796;2023-04-29T03:00:56;101374.63;;;7.94;86.80
78411;BME280;67706;51.074;-1.796;2023-04-29T03:03:23;101375.81;;;7.92;86.50
78411;BME280;67706;51.074;-1.796;2023-04-29T03:05:51;101381.63;;;7.89;86.69
78411;BME280;67706;51.074;-1.796;2023-04-29T03:08:17;101387.75;;;7.83;87.47
78411;BME280;67706;51.074;-1.796;2023-04-29T03:10:44;101383.66;;;7.87;87.50
78411;BME280;67706;51.074;-1.796;2023-04-29T03:13:11;101391.19;;;7.85;87.44
78411;BME280;67706;51.074;-1.796;2023-04-29T03:15:38;101388.94;;;7.80;87.85
78411;BME280;67706;51.074;-1.796;2023-04-29T03:18:05;101390.00;;;7.87;87.68
78411;BME280;67706;51.074;-1.796;2023-04-29T03:20:32;101395.47;;;7.87;87.37
78411;BME280;67706;51.074;-1.796;2023-04-29T03:23:00;101399.19;;;7.86;86.99
78411;BME280;67706;51.074;-1.796;2023-04-29T03:25:27;101403.78;;;7.78;87.40
78411;BME280;67706;51.074;-1.796;2023-04-29T03:27:54;101392.75;;;7.95;87.32
78411;BME280;67706;51.074;-1.796;2023-04-29T03:30:21;101397.84;;;7.90;87.28
78411;BME280;67706;51.074;-1.796;2023-04-29T03:32:48;101401.56;;;7.81;87.52
78411;BME280;67706;51.074;-1.796;2023-04-29T03:35:14;101412.47;;;7.73;87.57
78411;BME280;67706;51.074;-1.796;2023-04-29T03:37:41;101420.84;;;7.72;87.10
78411;BME280;67706;51.074;-1.796;2023-04-29T03:40:12;101404.75;;;7.61;87.55
78411;BME280;67706;51.074;-1.796;2023-04-29T03:42:39;101417.59;;;7.68;87.06
78411;BME280;67706;51.074;-1.796;2023-04-29T03:45:06;101427.84;;;7.74;87.33
78411;BME280;67706;51.074;-1.796;2023-04-29T03:47:33;101422.41;;;7.82;87.14
78411;BME280;67706;51.074;-1.796;2023-04-29T03:50:00;101432.97;;;7.85;87.20
78411;BME280;67706;51.074;-1.796;2023-04-29T03:52:27;101424.28;;;7.90;86.84
78411;BME280;67706;51.074;-1.796;2023-04-29T03:54:53;101430.13;;;7.95;86.74
78411;BME280;67706;51.074;-1.796;2023-04-29T03:57:21;101429.03;;;7.72;87.42
78411;BME280;67706;51.074;-1.796;2023-04-29T03:59:48;101442.50;;;7.73;86.87
78411;BME280;67706;51.074;-1.796;2023-04-29T04:02:15;101432.72;;;7.63;87.29
78411;BME280;67706;51.074;-1.796;2023-04-29T04:04:42;101445.56;;;7.62;87.36
78411;BME280;67706;51.074;-1.796;2023-04-29T04:07:08;101450.31;;;7.60;87.59
78411;BME280;67706;51.074;-1.796;2023-04-29T04:09:36;101454.78;;;7.69;87.74
78411;BME280;67706;51.074;-1.796;2023-04-29T04:12:03;101456.13;;;7.65;87.45
78411;BME280;67706;51.074;-1.796;2023-04-29T04:14:31;101464.81;;;7.61;87.23
78411;BME280;67706;51.074;-1.796;2023-04-29T04:16:58;101467.16;;;7.48;87.47
78411;BME280;67706;51.074;-1.796;2023-04-29T04:19:25;101461.88;;;7.54;87.38
78411;BME280;67706;51.074;-1.796;2023-04-29T04:21:53;101464.88;;;7.35;87.14
78411;BME280;67706;51.074;-1.796;2023-04-29T04:24:20;101465.19;;;7.32;87.25
78411;BME280;67706;51.074;-1.796;2023-04-29T04:26:46;101461.84;;;7.20;86.90
78411;BME280;67706;51.074;-1.796;2023-04-29T04:29:13;101468.47;;;7.10;87.17
78411;BME280;67706;51.074;-1.796;2023-04-29T04:31:41;101482.88;;;7.02;87.49
78411;BME280;67706;51.074;-1.796;2023-04-29T04:34:08;101478.22;;;6.95;87.77
78411;BME280;67706;51.074;-1.796;2023-04-29T04:36:35;101481.19;;;6.84;87.91
78411;BME280;67706;51.074;-1.796;2023-04-29T04:39:01;101485.31;;;6.88;87.69
78411;BME280;67706;51.074;-1.796;2023-04-29T04:41:28;101478.31;;;6.85;87.58
78411;BME280;67706;51.074;-1.796;2023-04-29T04:43:55;101485.78;;;6.83;87.02
78411;BME280;67706;51.074;-1.796;2023-04-29T04:46:22;101489.50;;;6.57;87.92
78411;BME280;67706;51.074;-1.796;2023-04-29T04:48:50;101496.19;;;6.45;88.86
78411;BME280;67706;51.074;-1.796;2023-04-29T04:51:17;101496.09;;;6.54;88.46
78411;BME280;67706;51.074;-1.796;2023-04-29T04:53:43;101493.38;;;6.72;87.66
78411;BME280;67706;51.074;-1.796;2023-04-29T04:56:10;101501.22;;;6.75;87.56
78411;BME280;67706;51.074;-1.796;2023-04-29T04:58:37;101504.97;;;6.74;87.89
78411;BME280;67706;51.074;-1.796;2023-04-29T05:01:04;101499.13;;;6.69;87.69
78411;BME280;67706;51.074;-1.796;2023-04-29T05:03:30;101503.72;;;6.68;87.54
78411;BME280;67706;51.074;-1.796;2023-04-29T05:05:59;101507.06;;;6.62;88.00
78411;BME280;67706;51.074;-1.796;2023-04-29T05:08:26;101511.19;;;6.66;88.17
78411;BME280;67706;51.074;-1.796;2023-04-29T05:10:53;101511.31;;;6.74;87.94
78411;BME280;67706;51.074;-1.796;2023-04-29T05:13:19;101513.63;;;6.87;87.59
78411;BME280;67706;51.074;-1.796;2023-04-29T05:15:46;101517.28;;;6.78;88.37
78411;BME280;67706;51.074;-1.796;2023-04-29T05:18:13;101512.75;;;6.69;88.42
78411;BME280;67706;51.074;-1.796;2023-04-29T05:20:40;101513.69;;;6.77;88.73
78411;BME280;67706;51.074;-1.796;2023-04-29T05:23:08;101516.13;;;6.80;88.91
78411;BME280;67706;51.074;-1.796;2023-04-29T05:25:34;101523.59;;;6.78;88.49
78411;BME280;67706;51.074;-1.796;2023-04-29T05:28:01;101518.53;;;6.66;89.12
78411;BME280;67706;51.074;-1.796;2023-04-29T05:30:28;101514.41;;;6.62;89.02
78411;BME280;67706;51.074;-1.796;2023-04-29T05:32:55;101516.13;;;6.63;88.95
78411;BME280;67706;51.074;-1.796;2023-04-29T05:35:22;101518.84;;;6.63;88.92
78411;BME280;67706;51.074;-1.796;2023-04-29T05:37:49;101521.81;;;6.69;88.90
78411;BME280;67706;51.074;-1.796;2023-04-29T05:40:17;101515.66;;;6.67;88.94
78411;BME280;67706;51.074;-1.796;2023-04-29T05:42:44;101531.91;;;6.77;88.67
78411;BME280;67706;51.074;-1.796;2023-04-29T05:45:11;101535.22;;;6.80;88.61
78411;BME280;67706;51.074;-1.796;2023-04-29T05:47:38;101539.56;;;6.73;88.16
78411;BME280;67706;51.074;-1.796;2023-04-29T05:50:05;101533.41;;;6.71;88.52
78411;BME280;67706;51.074;-1.796;2023-04-29T05:52:32;101543.00;;;6.75;88.44
78411;BME280;67706;51.074;-1.796;2023-04-29T05:54:59;101535.03;;;6.82;88.58
78411;BME280;67706;51.074;-1.796;2023-04-29T05:57:27;101536.28;;;6.87;87.76
78411;BME280;67706;51.074;-1.796;2023-04-29T05:59:54;101542.94;;;6.85;88.58
78411;BME280;67706;51.074;-1.796;2023-04-29T06:02:20;101542.41;;;7.07;88.15
78411;BME280;67706;51.074;-1.796;2023-04-29T06:04:47;101539.13;;;7.21;87.32
78411;BME280;67706;51.074;-1.796;2023-04-29T06:07:14;101549.47;;;7.35;87.21
78411;BME280;67706;51.074;-1.796;2023-04-29T06:09:41;101544.06;;;7.43;86.62
78411;BME280;67706;51.074;-1.796;2023-04-29T06:12:08;101543.34;;;7.67;85.79
78411;BME280;67706;51.074;-1.796;2023-04-29T06:14:36;101544.59;;;7.72;85.42
78411;BME280;67706;51.074;-1.796;2023-04-29T06:17:03;101546.59;;;7.62;86.11
78411;BME280;67706;51.074;-1.796;2023-04-29T06:19:30;101546.38;;;7.56;86.41
78411;BME280;67706;51.074;-1.796;2023-04-29T06:21:58;101552.91;;;7.71;86.05
78411;BME280;67706;51.074;-1.796;2023-04-29T06:24:25;101544.44;;;7.82;85.70
78411;BME280;67706;51.074;-1.796;2023-04-29T06:26:51;101548.75;;;7.84;86.13
78411;BME280;67706;51.074;-1.796;2023-04-29T06:29:18;101556.56;;;7.79;86.55
78411;BME280;67706;51.074;-1.796;2023-04-29T06:31:46;101558.81;;;7.84;86.14
78411;BME280;67706;51.074;-1.796;2023-04-29T06:34:13;101549.47;;;7.94;86.03
78411;BME280;67706;51.074;-1.796;2023-04-29T06:36:39;101555.66;;;8.04;86.19
78411;BME280;67706;51.074;-1.796;2023-04-29T06:39:06;101557.66;;;8.28;85.44
78411;BME280;67706;51.074;-1.796;2023-04-29T06:41:33;101563.03;;;8.46;84.79
78411;BME280;67706;51.074;-1.796;2023-04-29T06:44:01;101564.72;;;8.47;84.99
78411;BME280;67706;51.074;-1.796;2023-04-29T06:46:27;101568.34;;;8.55;85.05
78411;BME280;67706;51.074;-1.796;2023-04-29T06:48:56;101571.09;;;8.71;84.59
78411;BME280;67706;51.074;-1.796;2023-04-29T06:51:22;101573.72;;;8.89;83.21
78411;BME280;67706;51.074;-1.796;2023-04-29T06:53:49;101564.63;;;8.89;83.32
78411;BME280;67706;51.074;-1.796;2023-04-29T06:56:16;101565.19;;;8.92;83.06
78411;BME280;67706;51.074;-1.796;2023-04-29T06:58:43;101569.59;;;8.93;83.56
78411;BME280;67706;51.074;-1.796;2023-04-29T07:01:09;101564.66;;;8.97;83.11
78411;BME280;67706;51.074;-1.796;2023-04-29T07:03:36;101576.13;;;9.00;83.42
78411;BME280;67706;51.074;-1.796;2023-04-29T07:06:04;101572.03;;;9.04;82.96
78411;BME280;67706;51.074;-1.796;2023-04-29T07:08:31;101581.91;;;8.97;83.42
78411;BME280;67706;51.074;-1.796;2023-04-29T07:10:58;101579.91;;;9.15;82.84
78411;BME280;67706;51.074;-1.796;2023-04-29T07:13:25;101584.34;;;9.24;83.30
78411;BME280;67706;51.074;-1.796;2023-04-29T07:15:52;101580.06;;;9.30;83.05
78411;BME280;67706;51.074;-1.796;2023-04-29T07:18:18;101583.66;;;9.22;83.22
78411;BME280;67706;51.074;-1.796;2023-04-29T07:20:45;101586.53;;;9.45;82.58
78411;BME280;67706;51.074;-1.796;2023-04-29T07:23:14;101581.25;;;9.51;82.08
78411;BME280;67706;51.074;-1.796;2023-04-29T07:25:41;101584.66;;;9.53;82.05
78411;BME280;67706;51.074;-1.796;2023-04-29T07:28:07;101588.06;;;9.63;81.70
78411;BME280;67706;51.074;-1.796;2023-04-29T07:30:34;101585.66;;;9.77;81.43
78411;BME280;67706;51.074;-1.796;2023-04-29T07:33:01;101593.19;;;9.75;81.63
78411;BME280;67706;51.074;-1.796;2023-04-29T07:35:28;101587.72;;;9.75;82.38
78411;BME280;67706;51.074;-1.796;2023-04-29T07:37:55;101591.28;;;9.83;81.78
78411;BME280;67706;51.074;-1.796;2023-04-29T07:40:23;101597.59;;;9.92;82.19
78411;BME280;67706;51.074;-1.796;2023-04-29T07:42:50;101591.44;;;9.90;81.84
78411;BME280;67706;51.074;-1.796;2023-04-29T07:45:17;101593.09;;;10.23;80.81
78411;BME280;67706;51.074;-1.796;2023-04-29T07:47:44;101595.44;;;10.34;80.79
78411;BME280;67706;51.074;-1.796;2023-04-29T07:50:11;101594.34;;;10.43;80.44
78411;BME280;67706;51.074;-1.796;2023-04-29T07:52:38;101585.59;;;10.48;80.09
78411;BME280;67706;51.074;-1.796;2023-04-29T07:55:05;101594.78;;;10.63;79.46
78411;BME280;67706;51.074;-1.796;2023-04-29T07:57:33;101601.34;;;10.84;79.18
78411;BME280;67706;51.074;-1.796;2023-04-29T08:00:00;101597.34;;;10.95;78.13
78411;BME280;67706;51.074;-1.796;2023-04-29T08:02:27;101598.97;;;11.04;78.30
78411;BME280;67706;51.074;-1.796;2023-04-29T08:04:53;101590.91;;;11.25;77.59
78411;BME280;67706;51.074;-1.796;2023-04-29T08:07:23;101589.19;;;11.47;76.53
78411;BME280;67706;51.074;-1.796;2023-04-29T08:09:50;101598.84;;;11.43;77.26
78411;BME280;67706;51.074;-1.796;2023-04-29T08:12:17;101601.22;;;11.68;76.60
78411;BME280;67706;51.074;-1.796;2023-04-29T08:14:45;101603.13;;;11.68;75.97
78411;BME280;67706;51.074;-1.796;2023-04-29T08:17:14;101600.41;;;11.97;75.14
78411;BME280;67706;51.074;-1.796;2023-04-29T08:19:41;101602.97;;;12.13;74.74
78411;BME280;67706;51.074;-1.796;2023-04-29T08:22:08;101601.53;;;12.17;74.30
78411;BME280;67706;51.074;-1.796;2023-04-29T08:24:36;101613.19;;;12.34;74.77
78411;BME280;67706;51.074;-1.796;2023-04-29T08:27:03;101609.88;;;12.38;74.38
78411;BME280;67706;51.074;-1.796;2023-04-29T08:29:30;101616.63;;;12.21;74.81
78411;BME280;67706;51.074;-1.796;2023-04-29T08:31:59;101611.09;;;12.36;74.27
78411;BME280;67706;51.074;-1.796;2023-04-29T08:34:26;101611.78;;;12.52;74.44
78411;BME280;67706;51.074;-1.796;2023-04-29T08:36:53;101612.50;;;12.61;74.07
78411;BME280;67706;51.074;-1.796;2023-04-29T08:39:20;101608.69;;;12.76;73.48
78411;BME280;67706;51.074;-1.796;2023-04-29T08:41:46;101612.66;;;12.89;72.62
78411;BME280;67706;51.074;-1.796;2023-04-29T08:44:16;101617.28;;;13.03;72.57
78411;BME280;67706;51.074;-1.796;2023-04-29T08:46:43;101612.78;;;13.16;72.36
78411;BME280;67706;51.074;-1.796;2023-04-29T08:49:12;101620.72;;;13.26;72.84
78411;BME280;67706;51.074;-1.796;2023-04-29T08:51:39;101620.84;;;13.39;71.63
78411;BME280;67706;51.074;-1.796;2023-04-29T08:54:05;101621.56;;;13.47;71.54
78411;BME280;67706;51.074;-1.796;2023-04-29T08:56:33;101627.09;;;13.47;70.39
78411;BME280;67706;51.074;-1.796;2023-04-29T08:59:01;101630.28;;;13.51;71.14
78411;BME280;67706;51.074;-1.796;2023-04-29T09:01:29;101631.13;;;13.73;70.03
78411;BME280;67706;51.074;-1.796;2023-04-29T09:04:03;101637.50;;;13.73;70.33
78411;BME280;67706;51.074;-1.796;2023-04-29T09:06:36;101636.97;;;13.84;70.31
78411;BME280;67706;51.074;-1.796;2023-04-29T09:09:04;101642.78;;;13.96;69.45
78411;BME280;67706;51.074;-1.796;2023-04-29T09:11:31;101624.81;;;14.06;68.60
78411;BME280;67706;51.074;-1.796;2023-04-29T09:13:58;101634.19;;;14.12;68.86
78411;BME280;67706;51.074;-1.796;2023-04-29T09:16:26;101643.31;;;14.12;68.42
78411;BME280;67706;51.074;-1.796;2023-04-29T09:18:52;101632.44;;;14.04;68.14
78411;BME280;67706;51.074;-1.796;2023-04-29T09:21:22;101643.97;;;14.14;68.59
78411;BME280;67706;51.074;-1.796;2023-04-29T09:23:51;101644.03;;;14.21;68.28
78411;BME280;67706;51.074;-1.796;2023-04-29T09:26:18;101633.59;;;14.16;68.06
78411;BME280;67706;51.074;-1.796;2023-04-29T09:28:53;101630.38;;;14.13;68.31
78411;BME280;67706;51.074;-1.796;2023-04-29T09:31:30;101627.22;;;14.16;67.81
78411;BME280;67706;51.074;-1.796;2023-04-29T09:33:57;101631.25;;;14.13;68.14
78411;BME280;67706;51.074;-1.796;2023-04-29T09:36:38;101632.94;;;14.14;68.57
78411;BME280;67706;51.074;-1.796;2023-04-29T09:39:08;101626.78;;;14.12;68.36
78411;BME280;67706;51.074;-1.796;2023-04-29T09:41:57;101632.72;;;14.09;67.82
78411;BME280;67706;51.074;-1.796;2023-04-29T09:44:29;101638.88;;;14.11;69.05
78411;BME280;67706;51.074;-1.796;2023-04-29T09:46:57;101642.69;;;14.10;68.69
78411;BME280;67706;51.074;-1.796;2023-04-29T09:49:26;101639.50;;;14.35;68.46
78411;BME280;67706;51.074;-1.796;2023-04-29T09:51:55;101639.81;;;14.53;67.82
78411;BME280;67706;51.074;-1.796;2023-04-29T09:54:25;101644.84;;;14.43;67.75
78411;BME280;67706;51.074;-1.796;2023-04-29T09:56:53;101640.31;;;14.35;68.48
78411;BME280;67706;51.074;-1.796;2023-04-29T09:59:21;101648.25;;;14.45;68.13
78411;BME280;67706;51.074;-1.796;2023-04-29T10:01:49;101649.38;;;14.57;68.30
78411;BME280;67706;51.074;-1.796;2023-04-29T10:04:18;101642.47;;;14.74;67.34
78411;BME280;67706;51.074;-1.796;2023-04-29T10:06:47;101649.69;;;14.81;67.38
78411;BME280;67706;51.074;-1.796;2023-04-29T10:09:15;101642.97;;;14.97;66.80
78411;BME280;67706;51.074;-1.796;2023-04-29T10:11:45;101641.28;;;15.02;65.21
78411;BME280;67706;51.074;-1.796;2023-04-29T10:14:15;101639.31;;;14.90;66.94
78411;BME280;67706;51.074;-1.796;2023-04-29T10:16:46;101635.28;;;14.86;65.49
78411;BME280;67706;51.074;-1.796;2023-04-29T10:19:25;101632.94;;;14.83;65.90
78411;BME280;67706;51.074;-1.796;2023-04-29T10:21:54;101630.97;;;14.77;65.77
78411;BME280;67706;51.074;-1.796;2023-04-29T10:24:24;101641.63;;;14.80;65.93
78411;BME280;67706;51.074;-1.796;2023-04-29T10:26:53;101639.56;;;14.95;65.04
78411;BME280;67706;51.074;-1.796;2023-04-29T10:29:24;101630.28;;;15.16;64.48
78411;BME280;67706;51.074;-1.796;2023-04-29T10:31:53;101639.25;;;15.31;63.92
78411;BME280;67706;51.074;-1.796;2023-04-29T10:34:21;101639.47;;;15.42;63.24
78411;BME280;67706;51.074;-1.796;2023-04-29T10:36:48;101633.53;;;15.39;61.99
78411;BME280;67706;51.074;-1.796;2023-04-29T10:39:22;101633.16;;;15.55;62.04
78411;BME280;67706;51.074;-1.796;2023-04-29T10:41:53;101631.00;;;15.50;62.83
78411;BME280;67706;51.074;-1.796;2023-04-29T10:44:21;101640.19;;;15.70;61.38
78411;BME280;67706;51.074;-1.796;2023-04-29T10:46:48;101643.78;;;15.77;60.18
78411;BME280;67706;51.074;-1.796;2023-04-29T10:49:15;101634.03;;;15.68;59.99
78411;BME280;67706;51.074;-1.796;2023-04-29T10:51:42;101637.41;;;15.64;60.87
78411;BME280;67706;51.074;-1.796;2023-04-29T10:54:12;101634.22;;;15.60;60.17
78411;BME280;67706;51.074;-1.796;2023-04-29T10:56:45;101637.22;;;15.78;60.67
78411;BME280;67706;51.074;-1.796;2023-04-29T10:59:20;101640.63;;;16.00;60.14
78411;BME280;67706;51.074;-1.796;2023-04-29T11:01:49;101639.13;;;15.84;60.16
78411;BME280;67706;51.074;-1.796;2023-04-29T11:04:16;101638.91;;;15.99;60.35
78411;BME280;67706;51.074;-1.796;2023-04-29T11:06:46;101635.50;;;16.04;58.77
78411;BME280;67706;51.074;-1.796;2023-04-29T11:09:18;101634.41;;;16.24;58.81
78411;BME280;67706;51.074;-1.796;2023-04-29T11:11:47;101630.34;;;16.33;59.26
78411;BME280;67706;51.074;-1.796;2023-04-29T11:14:22;101626.91;;;16.44;58.52
78411;BME280;67706;51.074;-1.796;2023-04-29T11:16:52;101626.66;;;16.65;58.46
78411;BME280;67706;51.074;-1.796;2023-04-29T11:19:19;101629.00;;;16.68;57.41
78411;BME280;67706;51.074;-1.796;2023-04-29T11:21:46;101633.25;;;16.71;57.74
78411;BME280;67706;51.074;-1.796;2023-04-29T11:24:13;101628.59;;;16.65;58.19
78411;BME280;67706;51.074;-1.796;2023-04-29T11:26:43;101632.56;;;16.82;58.13
78411;BME280;67706;51.074;-1.796;2023-04-29T11:29:10;101625.25;;;17.01;57.55
78411;BME280;67706;51.074;-1.796;2023-04-29T11:31:39;101623.25;;;17.14;57.17
78411;BME280;67706;51.074;-1.796;2023-04-29T11:34:05;101625.00;;;17.09;56.30
78411;BME280;67706;51.074;-1.796;2023-04-29T11:36:32;101619.63;;;17.07;56.08
78411;BME280;67706;51.074;-1.796;2023-04-29T11:39:00;101621.44;;;17.26;56.35
78411;BME280;67706;51.074;-1.796;2023-04-29T11:41:27;101608.41;;;17.33;55.62
78411;BME280;67706;51.074;-1.796;2023-04-29T11:43:54;101608.97;;;17.11;56.16
78411;BME280;67706;51.074;-1.796;2023-04-29T11:46:22;101610.59;;;16.87;56.59
78411;BME280;67706;51.074;-1.796;2023-04-29T11:48:50;101606.69;;;17.32;56.23
78411;BME280;67706;51.074;-1.796;2023-04-29T11:51:17;101599.47;;;17.31;55.79
78411;BME280;67706;51.074;-1.796;2023-04-29T11:53:45;101595.16;;;17.67;54.71
78411;BME280;67706;51.074;-1.796;2023-04-29T11:56:12;101595.50;;;17.77;54.21
78411;BME280;67706;51.074;-1.796;2023-04-29T11:58:41;101596.13;;;17.54;54.15
78411;BME280;67706;51.074;-1.796;2023-04-29T12:01:08;101594.84;;;17.57;54.03
78411;BME280;67706;51.074;-1.796;2023-04-29T12:03:35;101593.94;;;17.63;55.15
78411;BME280;67706;51.074;-1.796;2023-04-29T12:06:03;101590.97;;;17.58;53.49
78411;BME280;67706;51.074;-1.796;2023-04-29T12:08:30;101588.31;;;17.69;54.57
78411;BME280;67706;51.074;-1.796;2023-04-29T12:10:59;101582.19;;;17.85;54.47
78411;BME280;67706;51.074;-1.796;2023-04-29T12:13:28;101585.16;;;18.08;54.46
78411;BME280;67706;51.074;-1.796;2023-04-29T12:15:56;101582.78;;;18.12;54.29
78411;BME280;67706;51.074;-1.796;2023-04-29T12:18:23;101583.06;;;17.86;54.14
78411;BME280;67706;51.074;-1.796;2023-04-29T12:20:52;101579.19;;;17.87;54.84
78411;BME280;67706;51.074;-1.796;2023-04-29T12:23:22;101578.41;;;17.80;53.98
78411;BME280;67706;51.074;-1.796;2023-04-29T12:25:52;101579.84;;;18.07;52.86
78411;BME280;67706;51.074;-1.796;2023-04-29T12:28:19;101580.56;;;18.20;52.49
78411;BME280;67706;51.074;-1.796;2023-04-29T12:30:46;101579.31;;;18.16;53.03
78411;BME280;67706;51.074;-1.796;2023-04-29T12:33:20;101585.91;;;17.97;53.64
78411;BME280;67706;51.074;-1.796;2023-04-29T12:35:48;101583.09;;;17.79;54.28
78411;BME280;67706;51.074;-1.796;2023-04-29T12:38:19;101579.41;;;17.85;55.08
78411;BME280;67706;51.074;-1.796;2023-04-29T12:40:47;101580.66;;;17.89;55.02
78411;BME280;67706;51.074;-1.796;2023-04-29T12:43:15;101574.56;;;18.23;53.83
78411;BME280;67706;51.074;-1.796;2023-04-29T12:45:43;101576.78;;;18.33;53.04
78411;BME280;67706;51.074;-1.796;2023-04-29T12:48:10;101578.19;;;18.24;52.48